createdAt,value
2023-04-27T00:02:46.276Z,95894.41
2023-04-27T00:08:08.045Z,95890.09
2023-04-27T00:13:30.051Z,95880.38
2023-04-27T00:18:52.054Z,95881.16
2023-04-27T00:24:14.015Z,95887.75
2023-04-27T00:29:36.039Z,95873.69
2023-04-27T00:34:58.023Z,95881.09
2023-04-27T00:40:20.080Z,95872.16
2023-04-27T00:45:42.046Z,95883.06
2023-04-27T00:51:04.042Z,95881.09
2023-04-27T00:56:26.019Z,95877.97
2023-04-27T01:01:48.109Z,95867.47
2023-04-27T01:07:17.040Z,95869.00
2023-04-27T01:12:39.036Z,95864.28
2023-04-27T01:18:01.064Z,95868.56
2023-04-27T01:23:23.013Z,95859.59
2023-04-27T01:28:45.049Z,95863.50
2023-04-27T01:34:08.039Z,95865.81
2023-04-27T01:39:30.007Z,95854.09
2023-04-27T01:44:52.008Z,95861.88
2023-04-27T01:50:14.019Z,95869.25
2023-04-27T01:55:42.998Z,95878.22
2023-04-27T02:01:05.010Z,95878.63
2023-04-27T02:06:27.006Z,95868.91
2023-04-27T02:11:49.006Z,95879.81
2023-04-27T02:17:11.022Z,95874.72
2023-04-27T02:22:34.024Z,95882.50
2023-04-27T02:27:56.002Z,95887.16
2023-04-27T02:33:18.014Z,95882.06
2023-04-27T02:38:40.010Z,95882.06
2023-04-27T02:44:02.016Z,95890.59
2023-04-27T02:49:24.007Z,95890.19
2023-04-27T02:54:45.978Z,95889.78
2023-04-27T03:00:07.995Z,95885.09
2023-04-27T03:05:39.994Z,95886.63
2023-04-27T03:11:01.985Z,95898.66
2023-04-27T03:16:25.006Z,95892.41
2023-04-27T03:21:47.006Z,95891.97
2023-04-27T03:27:09.974Z,95894.63
2023-04-27T03:32:32.019Z,95892.66
2023-04-27T03:37:53.972Z,95896.09
2023-04-27T03:43:15.980Z,95903.81
2023-04-27T03:48:37.998Z,95910.38
2023-04-27T03:53:59.973Z,95909.94
2023-04-27T03:59:21.961Z,95914.16
2023-04-27T04:04:44.125Z,95931.25
2023-04-27T04:10:06.015Z,95922.25
2023-04-27T04:15:35.034Z,95932.34
2023-04-27T04:20:57.003Z,95930.81
2023-04-27T04:26:19.961Z,95930.41
2023-04-27T04:31:42.044Z,95943.25
2023-04-27T04:37:06.964Z,95950.28
2023-04-27T04:42:28.967Z,95949.47
2023-04-27T04:47:51.026Z,95944.41
2023-04-27T04:53:12.968Z,95951.41
2023-04-27T04:58:34.974Z,95953.00
2023-04-27T05:03:58.108Z,95942.88
2023-04-27T05:09:19.936Z,95940.59
2023-04-27T05:14:41.945Z,95941.78
2023-04-27T05:20:03.963Z,95947.25
2023-04-27T05:25:25.965Z,95955.84
2023-04-27T05:30:47.946Z,95953.56
2023-04-27T05:36:09.940Z,95951.69
2023-04-27T05:41:31.939Z,95952.13
2023-04-27T05:46:53.943Z,95974.78
2023-04-27T05:52:15.952Z,95968.97
2023-04-27T05:57:37.951Z,95977.63
2023-04-27T06:03:00.050Z,95974.97
2023-04-27T06:08:21.952Z,95978.94
2023-04-27T06:13:44.936Z,95985.22
2023-04-27T06:19:07.044Z,95987.25
2023-04-27T06:24:28.967Z,95984.56
2023-04-27T06:29:50.968Z,95990.06
2023-04-27T06:35:12.926Z,95987.81
2023-04-27T06:40:34.998Z,95996.84
2023-04-27T06:45:56.976Z,96005.50
2023-04-27T06:51:18.948Z,95994.66
2023-04-27T06:56:40.923Z,96000.16
2023-04-27T07:02:02.973Z,96004.53
2023-04-27T07:07:31.961Z,96005.72
2023-04-27T07:12:53.937Z,96006.13
2023-04-27T07:18:15.968Z,96003.44
2023-04-27T07:23:37.954Z,96010.91
2023-04-27T07:29:00.320Z,95993.78
2023-04-27T07:34:22.950Z,96000.88
2023-04-27T07:39:44.930Z,96002.53
2023-04-27T07:45:07.949Z,95994.34
2023-04-27T07:50:31.966Z,95996.34
2023-04-27T07:55:53.955Z,96006.91
2023-04-27T08:01:15.910Z,96014.75
2023-04-27T08:06:38.332Z,96015.56
2023-04-27T08:12:00.904Z,96017.50
2023-04-27T08:17:24.890Z,96021.41
2023-04-27T08:22:46.896Z,96018.69
2023-04-27T08:28:08.903Z,96028.47
2023-04-27T08:33:30.888Z,96021.00
2023-04-27T08:38:52.899Z,96020.25
2023-04-27T08:44:14.902Z,96018.66
2023-04-27T08:49:36.880Z,96010.41
2023-04-27T08:54:58.901Z,96014.28
2023-04-27T09:00:21.992Z,96017.75
2023-04-27T09:05:52.713Z,96020.84
2023-04-27T09:11:42.892Z,96023.50
2023-04-27T09:17:11.882Z,96026.97
2023-04-27T09:22:33.890Z,96016.38
2023-04-27T09:27:58.029Z,96012.09
2023-04-27T09:33:19.905Z,96019.13
2023-04-27T09:38:42.869Z,96012.00
2023-04-27T09:44:04.863Z,96007.22
2023-04-27T09:49:27.880Z,96003.91
2023-04-27T09:54:49.880Z,95997.50
2023-04-27T10:00:47.931Z,95979.81
2023-04-27T10:06:39.881Z,95979.66
2023-04-27T10:12:01.881Z,95987.00
2023-04-27T10:17:23.875Z,95987.00
2023-04-27T10:22:54.877Z,95982.53
2023-04-27T10:28:17.865Z,95973.00
2023-04-27T10:33:49.877Z,95974.78
2023-04-27T10:39:12.044Z,95963.16
2023-04-27T10:44:34.881Z,95963.59
2023-04-27T10:49:56.859Z,95966.00
2023-04-27T10:55:22.862Z,95953.94
2023-04-27T11:00:54.853Z,95952.25
2023-04-27T11:06:16.959Z,95947.47
2023-04-27T11:11:39.891Z,95950.66
2023-04-27T11:17:01.943Z,95947.22
2023-04-27T11:22:23.900Z,95954.72
2023-04-27T11:27:46.880Z,95956.38
2023-04-27T11:33:08.966Z,95939.75
2023-04-27T11:38:30.940Z,95944.53
2023-04-27T11:43:56.893Z,95949.00
2023-04-27T11:49:18.892Z,95941.34
2023-04-27T11:54:43.874Z,95945.81
2023-04-27T12:00:07.876Z,95941.78
2023-04-27T12:05:30.133Z,95942.19
2023-04-27T12:10:51.879Z,95935.72
2023-04-27T12:16:13.940Z,95939.22
2023-04-27T12:21:35.886Z,95937.66
2023-04-27T12:26:57.881Z,95955.00
2023-04-27T12:32:19.857Z,95939.47
2023-04-27T12:37:41.869Z,95933.91
2023-04-27T12:43:03.878Z,95931.78
2023-04-27T12:48:25.889Z,95928.47
2023-04-27T12:53:47.859Z,95930.94
2023-04-27T12:59:09.868Z,95940.47
2023-04-27T13:04:32.050Z,95925.75
2023-04-27T13:09:53.872Z,95930.84
2023-04-27T13:15:15.871Z,95932.69
2023-04-27T13:20:37.934Z,95938.09
2023-04-27T13:25:59.836Z,95926.91
2023-04-27T13:31:21.865Z,95921.91
2023-04-27T13:36:43.859Z,95920.72
2023-04-27T13:42:05.853Z,95917.97
2023-04-27T13:47:27.981Z,95909.94
2023-04-27T13:52:50.883Z,95900.97
2023-04-27T13:58:13.100Z,95896.41
2023-04-27T14:03:34.963Z,95897.63
2023-04-27T14:09:03.885Z,95889.66
2023-04-27T14:14:25.834Z,95889.44
2023-04-27T14:19:47.859Z,95890.31
2023-04-27T14:25:09.862Z,95882.72
2023-04-27T14:30:31.849Z,95880.59
2023-04-27T14:35:53.857Z,95878.56
2023-04-27T14:41:15.850Z,95879.69
2023-04-27T14:46:37.897Z,95887.22
2023-04-27T14:51:59.848Z,95886.31
2023-04-27T14:57:21.840Z,95880.69
2023-04-27T15:02:43.901Z,95887.25
2023-04-27T15:08:05.845Z,95887.81
2023-04-27T15:13:27.871Z,95882.56
2023-04-27T15:18:49.875Z,95895.88
2023-04-27T15:24:11.873Z,95899.09
2023-04-27T15:29:33.835Z,95885.34
2023-04-27T15:34:56.833Z,95890.25
2023-04-27T15:40:18.835Z,95888.38
2023-04-27T15:45:41.874Z,95877.06
2023-04-27T15:51:03.839Z,95870.41
2023-04-27T15:56:25.894Z,95878.41
2023-04-27T16:01:47.841Z,95873.97
2023-04-27T16:07:09.833Z,95878.72
2023-04-27T16:12:31.810Z,95867.56
2023-04-27T16:17:53.880Z,95867.00
2023-04-27T16:23:15.830Z,95853.81
2023-04-27T16:28:38.808Z,95859.22
2023-04-27T16:34:00.807Z,95850.25
2023-04-27T16:39:22.820Z,95850.69
2023-04-27T16:44:44.824Z,95859.44
2023-04-27T16:50:06.812Z,95849.56
2023-04-27T16:55:28.819Z,95848.38
2023-04-27T17:00:50.829Z,95851.13
2023-04-27T17:06:12.812Z,95845.59
2023-04-27T17:11:34.805Z,95845.16
2023-04-27T17:16:56.808Z,95847.06
2023-04-27T17:22:19.821Z,95847.38
2023-04-27T17:27:41.820Z,95846.38
2023-04-27T17:33:03.864Z,95851.50
2023-04-27T17:38:25.835Z,95850.47
2023-04-27T17:43:47.867Z,95851.13
2023-04-27T17:49:09.806Z,95855.75
2023-04-27T17:54:31.822Z,95847.00
2023-04-27T17:59:53.819Z,95846.09
2023-04-27T18:05:15.811Z,95847.59
2023-04-27T18:10:37.808Z,95853.84
2023-04-27T18:15:59.841Z,95845.09
2023-04-27T18:21:21.816Z,95850.13
2023-04-27T18:26:43.821Z,95847.75
2023-04-27T18:32:07.852Z,95859.13
2023-04-27T18:37:29.806Z,95857.06
2023-04-27T18:42:51.817Z,95860.16
2023-04-27T18:48:13.827Z,95861.72
2023-04-27T18:53:35.824Z,95867.59
2023-04-27T18:58:57.828Z,95873.00
2023-04-27T19:04:19.917Z,95869.34
2023-04-27T19:09:41.806Z,95881.03
2023-04-27T19:15:03.835Z,95882.34
2023-04-27T19:20:25.798Z,95886.88
2023-04-27T19:25:47.818Z,95881.19
2023-04-27T19:31:09.911Z,95887.25
2023-04-27T19:36:32.791Z,95883.94
2023-04-27T19:41:54.795Z,95878.19
2023-04-27T19:47:19.797Z,95881.16
2023-04-27T19:52:41.799Z,95890.47
2023-04-27T19:58:03.815Z,95884.38
2023-04-27T20:03:25.966Z,95882.91
2023-04-27T20:08:54.779Z,95873.22
2023-04-27T20:14:17.125Z,95873.81
2023-04-27T20:19:38.791Z,95874.72
2023-04-27T20:25:00.788Z,95875.25
2023-04-27T20:30:22.794Z,95876.13
2023-04-27T20:35:44.777Z,95874.28
2023-04-27T20:41:07.778Z,95876.78
2023-04-27T20:46:29.777Z,95887.88
2023-04-27T20:51:51.790Z,95882.06
2023-04-27T20:57:19.802Z,95873.16
2023-04-27T21:02:41.875Z,95871.63
2023-04-27T21:08:03.765Z,95866.25
2023-04-27T21:13:40.764Z,95869.88
2023-04-27T21:19:02.790Z,95863.28
2023-04-27T21:24:25.791Z,95869.22
2023-04-27T21:29:47.856Z,95850.84
2023-04-27T21:35:09.794Z,95858.75
2023-04-27T21:40:31.784Z,95852.94
2023-04-27T21:45:53.785Z,95853.03
2023-04-27T21:51:15.854Z,95861.38
2023-04-27T21:56:37.782Z,95857.94
2023-04-27T22:01:59.892Z,95843.94
2023-04-27T22:07:21.753Z,95846.69
2023-04-27T22:12:43.752Z,95851.47
2023-04-27T22:18:05.877Z,95847.59
2023-04-27T22:23:27.779Z,95845.31
2023-04-27T22:28:49.763Z,95849.28
2023-04-27T22:34:11.806Z,95850.53
2023-04-27T22:39:33.756Z,95851.75
2023-04-27T22:44:55.752Z,95840.00
2023-04-27T22:50:17.756Z,95839.25
2023-04-27T22:55:39.766Z,95826.78
2023-04-27T23:01:01.786Z,95828.78
2023-04-27T23:06:23.764Z,95831.19
2023-04-27T23:11:46.741Z,95826.91
2023-04-27T23:17:08.777Z,95823.41
2023-04-27T23:22:30.737Z,95825.34
2023-04-27T23:27:53.006Z,95817.53
2023-04-27T23:33:14.759Z,95808.94
2023-04-27T23:38:36.766Z,95825.03
2023-04-27T23:43:58.728Z,95814.44
2023-04-27T23:49:20.741Z,95811.75
2023-04-27T23:54:45.744Z,95815.31
